sensor_id;sensor_type;location;lat;lon;timestamp;P1;durP1;ratioP1;P2;durP2;ratioP2
49556;SDS011;35462;45.048;7.666;2024-01-06T00:02:16;4.97;;;4.07;;
49556;SDS011;35462;45.048;7.666;2024-01-06T00:17:36;6.23;;;4.83;;
49556;SDS011;35462;45.048;7.666;2024-01-06T00:32:55;5.47;;;4.30;;
49556;SDS011;35462;45.048;7.666;2024-01-06T00:48:15;5.93;;;5.33;;
49556;SDS011;35462;45.048;7.666;2024-01-06T01:03:34;5.87;;;4.70;;
49556;SDS011;35462;45.048;7.666;2024-01-06T01:18:54;7.13;;;5.17;;
49556;SDS011;35462;45.048;7.666;2024-01-06T01:34:13;6.03;;;4.90;;
49556;SDS011;35462;45.048;7.666;2024-01-06T01:49:32;4.70;;;4.00;;
49556;SDS011;35462;45.048;7.666;2024-01-06T02:04:52;5.87;;;5.00;;
49556;SDS011;35462;45.048;7.666;2024-01-06T02:20:11;6.97;;;5.83;;
49556;SDS011;35462;45.048;7.666;2024-01-06T02:35:32;5.90;;;4.68;;
49556;SDS011;35462;45.048;7.666;2024-01-06T02:50:52;6.23;;;4.83;;
49556;SDS011;35462;45.048;7.666;2024-01-06T03:06:12;7.60;;;4.97;;
49556;SDS011;35462;45.048;7.666;2024-01-06T03:21:31;4.77;;;4.27;;
49556;SDS011;35462;45.048;7.666;2024-01-06T03:36:50;5.67;;;4.83;;
49556;SDS011;35462;45.048;7.666;2024-01-06T03:52:10;6.27;;;5.27;;
49556;SDS011;35462;45.048;7.666;2024-01-06T04:07:29;6.80;;;5.50;;
49556;SDS011;35462;45.048;7.666;2024-01-06T04:22:49;6.40;;;5.57;;
49556;SDS011;35462;45.048;7.666;2024-01-06T04:38:08;8.47;;;6.73;;
49556;SDS011;35462;45.048;7.666;2024-01-06T04:53:28;10.00;;;7.27;;
49556;SDS011;35462;45.048;7.666;2024-01-06T05:08:48;8.17;;;6.70;;
49556;SDS011;35462;45.048;7.666;2024-01-06T05:24:07;10.73;;;7.40;;
49556;SDS011;35462;45.048;7.666;2024-01-06T05:39:27;9.97;;;6.40;;
49556;SDS011;35462;45.048;7.666;2024-01-06T05:54:46;8.27;;;6.73;;
49556;SDS011;35462;45.048;7.666;2024-01-06T06:10:09;9.17;;;7.17;;
49556;SDS011;35462;45.048;7.666;2024-01-06T06:25:29;13.50;;;10.73;;
49556;SDS011;35462;45.048;7.666;2024-01-06T06:40:49;11.27;;;9.30;;
49556;SDS011;35462;45.048;7.666;2024-01-06T06:56:08;12.63;;;9.07;;
49556;SDS011;35462;45.048;7.666;2024-01-06T07:11:29;9.55;;;7.47;;
49556;SDS011;35462;45.048;7.666;2024-01-06T07:26:49;10.77;;;7.77;;
49556;SDS011;35462;45.048;7.666;2024-01-06T07:42:08;12.87;;;8.37;;
49556;SDS011;35462;45.048;7.666;2024-01-06T07:57:27;9.57;;;8.00;;
49556;SDS011;35462;45.048;7.666;2024-01-06T08:12:47;10.43;;;7.90;;
49556;SDS011;35462;45.048;7.666;2024-01-06T08:28:07;10.65;;;7.65;;
49556;SDS011;35462;45.048;7.666;2024-01-06T08:43:27;10.90;;;8.47;;
49556;SDS011;35462;45.048;7.666;2024-01-06T08:58:46;10.93;;;8.43;;
49556;SDS011;35462;45.048;7.666;2024-01-06T09:14:05;10.30;;;7.30;;
49556;SDS011;35462;45.048;7.666;2024-01-06T09:29:25;10.43;;;7.00;;
49556;SDS011;35462;45.048;7.666;2024-01-06T09:44:44;6.47;;;5.37;;
49556;SDS011;35462;45.048;7.666;2024-01-06T10:00:04;5.93;;;4.27;;
49556;SDS011;35462;45.048;7.666;2024-01-06T10:15:30;5.82;;;3.47;;
49556;SDS011;35462;45.048;7.666;2024-01-06T10:30:54;4.83;;;3.50;;
49556;SDS011;35462;45.048;7.666;2024-01-06T10:46:14;6.38;;;4.82;;
49556;SDS011;35462;45.048;7.666;2024-01-06T11:01:35;5.20;;;4.35;;
49556;SDS011;35462;45.048;7.666;2024-01-06T11:16:55;6.40;;;4.70;;
49556;SDS011;35462;45.048;7.666;2024-01-06T11:32:18;7.17;;;3.83;;
49556;SDS011;35462;45.048;7.666;2024-01-06T11:47:48;4.95;;;3.83;;
49556;SDS011;35462;45.048;7.666;2024-01-06T12:18:27;7.18;;;4.30;;
49556;SDS011;35462;45.048;7.666;2024-01-06T12:33:47;5.33;;;3.73;;
49556;SDS011;35462;45.048;7.666;2024-01-06T12:49:06;5.83;;;4.37;;
49556;SDS011;35462;45.048;7.666;2024-01-06T13:04:26;4.60;;;3.43;;
49556;SDS011;35462;45.048;7.666;2024-01-06T13:19:45;6.67;;;3.00;;
49556;SDS011;35462;45.048;7.666;2024-01-06T13:35:05;4.27;;;2.47;;
49556;SDS011;35462;45.048;7.666;2024-01-06T13:50:25;2.75;;;2.00;;
49556;SDS011;35462;45.048;7.666;2024-01-06T14:05:45;3.63;;;2.30;;
49556;SDS011;35462;45.048;7.666;2024-01-06T14:21:04;2.73;;;2.33;;
49556;SDS011;35462;45.048;7.666;2024-01-06T14:36:24;3.23;;;2.40;;
49556;SDS011;35462;45.048;7.666;2024-01-06T14:51:43;3.87;;;2.53;;
49556;SDS011;35462;45.048;7.666;2024-01-06T15:07:04;15.93;;;11.63;;
49556;SDS011;35462;45.048;7.666;2024-01-06T15:22:24;4.00;;;2.87;;
49556;SDS011;35462;45.048;7.666;2024-01-06T15:37:43;5.77;;;2.77;;
49556;SDS011;35462;45.048;7.666;2024-01-06T15:53:03;6.47;;;4.43;;
49556;SDS011;35462;45.048;7.666;2024-01-06T16:08:23;6.60;;;3.90;;
49556;SDS011;35462;45.048;7.666;2024-01-06T16:23:43;4.43;;;3.85;;
49556;SDS011;35462;45.048;7.666;2024-01-06T16:39:02;4.77;;;4.03;;
49556;SDS011;35462;45.048;7.666;2024-01-06T16:54:22;7.17;;;4.93;;
49556;SDS011;35462;45.048;7.666;2024-01-06T17:09:41;6.47;;;4.83;;
49556;SDS011;35462;45.048;7.666;2024-01-06T17:25:03;7.55;;;5.32;;
49556;SDS011;35462;45.048;7.666;2024-01-06T17:40:24;7.65;;;5.72;;
49556;SDS011;35462;45.048;7.666;2024-01-06T17:55:43;10.67;;;6.47;;
49556;SDS011;35462;45.048;7.666;2024-01-06T18:11:03;9.17;;;6.17;;
49556;SDS011;35462;45.048;7.666;2024-01-06T18:26:22;9.60;;;7.13;;
49556;SDS011;35462;45.048;7.666;2024-01-06T18:41:42;10.00;;;7.27;;
49556;SDS011;35462;45.048;7.666;2024-01-06T18:57:01;10.00;;;7.57;;
49556;SDS011;35462;45.048;7.666;2024-01-06T19:12:21;11.23;;;7.33;;
49556;SDS011;35462;45.048;7.666;2024-01-06T19:27:40;10.33;;;6.57;;
49556;SDS011;35462;45.048;7.666;2024-01-06T19:43:00;11.67;;;8.03;;
49556;SDS011;35462;45.048;7.666;2024-01-06T19:58:21;13.02;;;9.02;;
49556;SDS011;35462;45.048;7.666;2024-01-06T20:13:40;12.57;;;8.90;;
49556;SDS011;35462;45.048;7.666;2024-01-06T20:29:00;10.67;;;7.80;;
49556;SDS011;35462;45.048;7.666;2024-01-06T20:44:19;12.85;;;9.65;;
49556;SDS011;35462;45.048;7.666;2024-01-06T20:59:39;11.60;;;9.00;;
49556;SDS011;35462;45.048;7.666;2024-01-06T21:14:59;13.40;;;9.50;;
49556;SDS011;35462;45.048;7.666;2024-01-06T21:45:38;11.48;;;7.50;;
49556;SDS011;35462;45.048;7.666;2024-01-06T22:00:57;10.80;;;7.80;;
49556;SDS011;35462;45.048;7.666;2024-01-06T22:31:40;11.70;;;8.25;;
49556;SDS011;35462;45.048;7.666;2024-01-06T22:47:01;14.30;;;9.05;;
49556;SDS011;35462;45.048;7.666;2024-01-06T23:02:20;13.63;;;9.23;;
49556;SDS011;35462;45.048;7.666;2024-01-06T23:17:40;11.73;;;9.13;;
49556;SDS011;35462;45.048;7.666;2024-01-06T23:33:00;13.00;;;9.43;;
49556;SDS011;35462;45.048;7.666;2024-01-06T23:48:19;12.70;;;8.53;;
